sensor_id;sensor_type;location;lat;lon;timestamp;temperature;humidity
2623;DHT22;1321;48.690;9.022;2023-04-24T00:00:00;13.10;99.90
2623;DHT22;1321;48.690;9.022;2023-04-24T00:02:28;13.10;99.90
2623;DHT22;1321;48.690;9.022;2023-04-24T00:04:57;13.10;99.90
2623;DHT22;1321;48.690;9.022;2023-04-24T00:07:29;13.10;99.90
2623;DHT22;1321;48.690;9.022;2023-04-24T00:09:58;13.10;99.90
2623;DHT22;1321;48.690;9.022;2023-04-24T00:12:27;13.10;99.90
2623;DHT22;1321;48.690;9.022;2023-04-24T00:14:55;13.10;99.90
2623;DHT22;1321;48.690;9.022;2023-04-24T00:17:23;13.00;99.90
2623;DHT22;1321;48.690;9.022;2023-04-24T00:19:52;13.00;99.90
2623;DHT22;1321;48.690;9.022;2023-04-24T00:22:25;13.00;99.90
2623;DHT22;1321;48.690;9.022;2023-04-24T00:24:54;13.10;99.90
2623;DHT22;1321;48.690;9.022;2023-04-24T00:27:23;13.10;99.90
2623;DHT22;1321;48.690;9.022;2023-04-24T00:29:51;13.10;99.90
2623;DHT22;1321;48.690;9.022;2023-04-24T00:32:20;13.10;99.90
2623;DHT22;1321;48.690;9.022;2023-04-24T00:34:48;13.10;99.90
2623;DHT22;1321;48.690;9.022;2023-04-24T00:37:16;13.10;99.90
2623;DHT22;1321;48.690;9.022;2023-04-24T00:39:44;13.10;94.70
2623;DHT22;1321;48.690;9.022;2023-04-24T00:42:13;13.10;99.90
2623;DHT22;1321;48.690;9.022;2023-04-24T00:44:43;13.10;99.90
2623;DHT22;1321;48.690;9.022;2023-04-24T00:47:11;13.10;99.90
2623;DHT22;1321;48.690;9.022;2023-04-24T00:49:40;13.10;99.90
2623;DHT22;1321;48.690;9.022;2023-04-24T00:52:09;13.10;99.90
2623;DHT22;1321;48.690;9.022;2023-04-24T00:54:37;13.10;87.70
2623;DHT22;1321;48.690;9.022;2023-04-24T00:57:05;13.10;99.50
2623;DHT22;1321;48.690;9.022;2023-04-24T00:59:34;13.10;95.30
2623;DHT22;1321;48.690;9.022;2023-04-24T01:02:04;13.10;99.90
2623;DHT22;1321;48.690;9.022;2023-04-24T01:04:33;13.10;99.90
2623;DHT22;1321;48.690;9.022;2023-04-24T01:07:01;13.00;99.90
2623;DHT22;1321;48.690;9.022;2023-04-24T01:09:30;13.10;99.90
2623;DHT22;1321;48.690;9.022;2023-04-24T01:11:58;13.10;99.90
2623;DHT22;1321;48.690;9.022;2023-04-24T01:14:27;13.00;99.90
2623;DHT22;1321;48.690;9.022;2023-04-24T01:16:56;13.10;99.90
2623;DHT22;1321;48.690;9.022;2023-04-24T01:19:27;13.10;99.90
2623;DHT22;1321;48.690;9.022;2023-04-24T01:21:58;13.00;99.90
2623;DHT22;1321;48.690;9.022;2023-04-24T01:24:31;13.10;99.90
2623;DHT22;1321;48.690;9.022;2023-04-24T01:26:59;13.10;99.90
2623;DHT22;1321;48.690;9.022;2023-04-24T01:29:28;13.10;99.90
2623;DHT22;1321;48.690;9.022;2023-04-24T01:31:56;13.10;99.90
2623;DHT22;1321;48.690;9.022;2023-04-24T01:34:25;13.10;99.90
2623;DHT22;1321;48.690;9.022;2023-04-24T01:36:53;13.10;99.90
2623;DHT22;1321;48.690;9.022;2023-04-24T01:39:23;13.10;99.90
2623;DHT22;1321;48.690;9.022;2023-04-24T01:41:54;13.10;99.90
2623;DHT22;1321;48.690;9.022;2023-04-24T01:44:23;13.10;99.90
2623;DHT22;1321;48.690;9.022;2023-04-24T01:46:51;13.10;99.90
2623;DHT22;1321;48.690;9.022;2023-04-24T01:49:21;13.10;99.90
2623;DHT22;1321;48.690;9.022;2023-04-24T01:51:49;13.00;99.90
2623;DHT22;1321;48.690;9.022;2023-04-24T01:54:17;13.10;99.90
2623;DHT22;1321;48.690;9.022;2023-04-24T01:56:46;13.00;99.90
2623;DHT22;1321;48.690;9.022;2023-04-24T01:59:17;13.00;99.90
2623;DHT22;1321;48.690;9.022;2023-04-24T02:01:45;13.00;99.90
2623;DHT22;1321;48.690;9.022;2023-04-24T02:04:13;13.00;99.90
2623;DHT22;1321;48.690;9.022;2023-04-24T02:06:42;12.90;99.90
2623;DHT22;1321;48.690;9.022;2023-04-24T02:09:10;12.90;1.00
2623;DHT22;1321;48.690;9.022;2023-04-24T02:11:38;12.70;1.00
2623;DHT22;1321;48.690;9.022;2023-04-24T02:14:07;12.80;1.00
2623;DHT22;1321;48.690;9.022;2023-04-24T02:16:36;12.80;1.00
2623;DHT22;1321;48.690;9.022;2023-04-24T02:19:04;12.70;1.00
2623;DHT22;1321;48.690;9.022;2023-04-24T02:21:33;12.70;1.00
2623;DHT22;1321;48.690;9.022;2023-04-24T02:24:01;12.70;1.00
2623;DHT22;1321;48.690;9.022;2023-04-24T02:26:29;12.70;1.00
2623;DHT22;1321;48.690;9.022;2023-04-24T02:28:58;12.70;99.90
2623;DHT22;1321;48.690;9.022;2023-04-24T02:31:26;12.70;1.00
2623;DHT22;1321;48.690;9.022;2023-04-24T02:33:56;12.70;44.10
2623;DHT22;1321;48.690;9.022;2023-04-24T02:36:24;12.70;99.90
2623;DHT22;1321;48.690;9.022;2023-04-24T02:38:53;12.70;99.90
2623;DHT22;1321;48.690;9.022;2023-04-24T02:41:21;12.70;70.00
2623;DHT22;1321;48.690;9.022;2023-04-24T02:43:49;12.70;99.90
2623;DHT22;1321;48.690;9.022;2023-04-24T02:46:17;12.70;46.80
2623;DHT22;1321;48.690;9.022;2023-04-24T02:48:46;12.80;1.00
2623;DHT22;1321;48.690;9.022;2023-04-24T02:51:15;12.80;1.00
2623;DHT22;1321;48.690;9.022;2023-04-24T02:53:44;12.80;1.00
2623;DHT22;1321;48.690;9.022;2023-04-24T02:56:12;12.80;1.00
2623;DHT22;1321;48.690;9.022;2023-04-24T02:58:40;12.80;6.60
2623;DHT22;1321;48.690;9.022;2023-04-24T03:01:09;12.90;1.00
2623;DHT22;1321;48.690;9.022;2023-04-24T03:03:38;12.80;99.90
2623;DHT22;1321;48.690;9.022;2023-04-24T03:06:07;12.70;99.90
2623;DHT22;1321;48.690;9.022;2023-04-24T03:08:37;12.70;20.90
2623;DHT22;1321;48.690;9.022;2023-04-24T03:11:05;12.60;1.00
2623;DHT22;1321;48.690;9.022;2023-04-24T03:13:33;12.60;36.10
2623;DHT22;1321;48.690;9.022;2023-04-24T03:16:02;12.50;99.90
2623;DHT22;1321;48.690;9.022;2023-04-24T03:18:30;12.50;99.90
2623;DHT22;1321;48.690;9.022;2023-04-24T03:20:58;12.50;99.90
2623;DHT22;1321;48.690;9.022;2023-04-24T03:23:26;12.50;99.90
2623;DHT22;1321;48.690;9.022;2023-04-24T03:25:56;12.50;99.90
2623;DHT22;1321;48.690;9.022;2023-04-24T03:28:24;12.50;1.00
2623;DHT22;1321;48.690;9.022;2023-04-24T03:30:52;12.50;88.10
2623;DHT22;1321;48.690;9.022;2023-04-24T03:33:21;12.50;99.90
2623;DHT22;1321;48.690;9.022;2023-04-24T03:35:49;12.50;1.00
2623;DHT22;1321;48.690;9.022;2023-04-24T03:38:17;12.40;1.00
2623;DHT22;1321;48.690;9.022;2023-04-24T03:40:45;12.30;99.90
2623;DHT22;1321;48.690;9.022;2023-04-24T03:43:15;12.30;99.90
2623;DHT22;1321;48.690;9.022;2023-04-24T03:45:43;12.30;99.90
2623;DHT22;1321;48.690;9.022;2023-04-24T03:48:11;12.30;1.00
2623;DHT22;1321;48.690;9.022;2023-04-24T03:50:40;12.20;99.90
2623;DHT22;1321;48.690;9.022;2023-04-24T03:53:08;12.20;99.90
2623;DHT22;1321;48.690;9.022;2023-04-24T03:55:36;12.20;99.90
2623;DHT22;1321;48.690;9.022;2023-04-24T03:58:04;12.10;99.90
2623;DHT22;1321;48.690;9.022;2023-04-24T04:00:34;12.20;99.90
2623;DHT22;1321;48.690;9.022;2023-04-24T04:03:04;12.30;99.90
2623;DHT22;1321;48.690;9.022;2023-04-24T04:05:33;12.30;1.00
2623;DHT22;1321;48.690;9.022;2023-04-24T04:08:01;12.30;1.00
2623;DHT22;1321;48.690;9.022;2023-04-24T04:10:29;12.30;1.00
2623;DHT22;1321;48.690;9.022;2023-04-24T04:12:57;12.30;99.90
2623;DHT22;1321;48.690;9.022;2023-04-24T04:15:26;12.30;1.00
2623;DHT22;1321;48.690;9.022;2023-04-24T04:17:55;12.30;99.90
2623;DHT22;1321;48.690;9.022;2023-04-24T04:20:23;12.40;99.90
2623;DHT22;1321;48.690;9.022;2023-04-24T04:22:52;12.30;99.90
2623;DHT22;1321;48.690;9.022;2023-04-24T04:25:20;12.30;1.00
2623;DHT22;1321;48.690;9.022;2023-04-24T04:27:48;12.40;1.00
2623;DHT22;1321;48.690;9.022;2023-04-24T04:30:18;12.40;84.80
2623;DHT22;1321;48.690;9.022;2023-04-24T04:32:47;12.30;1.00
2623;DHT22;1321;48.690;9.022;2023-04-24T04:35:17;12.20;1.00
2623;DHT22;1321;48.690;9.022;2023-04-24T04:37:45;12.20;1.00
2623;DHT22;1321;48.690;9.022;2023-04-24T04:40:13;12.10;1.00
2623;DHT22;1321;48.690;9.022;2023-04-24T04:42:42;12.10;1.00
2623;DHT22;1321;48.690;9.022;2023-04-24T04:45:12;12.10;1.00
2623;DHT22;1321;48.690;9.022;2023-04-24T04:47:43;12.00;1.00
2623;DHT22;1321;48.690;9.022;2023-04-24T04:50:12;11.90;94.70
2623;DHT22;1321;48.690;9.022;2023-04-24T04:52:41;12.00;1.00
2623;DHT22;1321;48.690;9.022;2023-04-24T04:55:10;12.00;1.00
2623;DHT22;1321;48.690;9.022;2023-04-24T04:57:40;11.90;1.00
2623;DHT22;1321;48.690;9.022;2023-04-24T05:00:09;11.90;1.00
2623;DHT22;1321;48.690;9.022;2023-04-24T05:02:38;11.90;1.00
2623;DHT22;1321;48.690;9.022;2023-04-24T05:05:08;11.90;1.00
2623;DHT22;1321;48.690;9.022;2023-04-24T05:07:36;11.90;1.00
2623;DHT22;1321;48.690;9.022;2023-04-24T05:10:07;11.90;1.00
2623;DHT22;1321;48.690;9.022;2023-04-24T05:12:35;11.90;99.90
2623;DHT22;1321;48.690;9.022;2023-04-24T05:15:04;11.90;74.90
2623;DHT22;1321;48.690;9.022;2023-04-24T05:17:33;11.90;1.00
2623;DHT22;1321;48.690;9.022;2023-04-24T05:20:01;11.90;1.00
2623;DHT22;1321;48.690;9.022;2023-04-24T05:22:33;11.90;1.00
2623;DHT22;1321;48.690;9.022;2023-04-24T05:25:02;11.90;1.00
2623;DHT22;1321;48.690;9.022;2023-04-24T05:27:32;12.00;1.00
2623;DHT22;1321;48.690;9.022;2023-04-24T05:30:00;12.00;1.00
2623;DHT22;1321;48.690;9.022;2023-04-24T05:32:28;12.00;1.00
2623;DHT22;1321;48.690;9.022;2023-04-24T05:34:57;12.00;1.00
2623;DHT22;1321;48.690;9.022;2023-04-24T05:37:25;12.00;1.00
2623;DHT22;1321;48.690;9.022;2023-04-24T05:39:53;12.10;99.90
2623;DHT22;1321;48.690;9.022;2023-04-24T05:42:21;12.10;99.90
2623;DHT22;1321;48.690;9.022;2023-04-24T05:44:51;12.10;99.90
2623;DHT22;1321;48.690;9.022;2023-04-24T05:47:23;12.00;99.90
2623;DHT22;1321;48.690;9.022;2023-04-24T05:49:53;12.00;99.90
2623;DHT22;1321;48.690;9.022;2023-04-24T05:52:21;11.90;99.90
2623;DHT22;1321;48.690;9.022;2023-04-24T05:54:49;12.00;99.90
2623;DHT22;1321;48.690;9.022;2023-04-24T05:57:17;12.00;99.90
2623;DHT22;1321;48.690;9.022;2023-04-24T05:59:45;12.00;99.90
2623;DHT22;1321;48.690;9.022;2023-04-24T06:02:15;12.00;99.90
2623;DHT22;1321;48.690;9.022;2023-04-24T06:04:43;12.00;99.90
2623;DHT22;1321;48.690;9.022;2023-04-24T06:07:12;12.00;99.90
2623;DHT22;1321;48.690;9.022;2023-04-24T06:09:41;12.00;99.90
2623;DHT22;1321;48.690;9.022;2023-04-24T06:12:09;11.90;99.90
2623;DHT22;1321;48.690;9.022;2023-04-24T06:14:38;12.10;99.90
2623;DHT22;1321;48.690;9.022;2023-04-24T06:17:06;12.40;99.90
2623;DHT22;1321;48.690;9.022;2023-04-24T06:19:35;12.70;99.90
2623;DHT22;1321;48.690;9.022;2023-04-24T06:22:03;12.90;34.50
2623;DHT22;1321;48.690;9.022;2023-04-24T06:24:33;13.20;1.00
2623;DHT22;1321;48.690;9.022;2023-04-24T06:27:01;13.10;1.00
2623;DHT22;1321;48.690;9.022;2023-04-24T06:29:30;13.40;1.00
2623;DHT22;1321;48.690;9.022;2023-04-24T06:31:58;13.50;1.00
2623;DHT22;1321;48.690;9.022;2023-04-24T06:34:26;13.40;1.00
2623;DHT22;1321;48.690;9.022;2023-04-24T06:36:56;13.50;1.00
2623;DHT22;1321;48.690;9.022;2023-04-24T06:39:25;13.40;1.00
2623;DHT22;1321;48.690;9.022;2023-04-24T06:41:53;13.40;1.00
2623;DHT22;1321;48.690;9.022;2023-04-24T06:44:22;13.50;1.00
2623;DHT22;1321;48.690;9.022;2023-04-24T06:46:50;14.00;1.00
2623;DHT22;1321;48.690;9.022;2023-04-24T06:49:19;14.40;1.00
2623;DHT22;1321;48.690;9.022;2023-04-24T06:51:47;14.60;99.90
2623;DHT22;1321;48.690;9.022;2023-04-24T06:54:17;14.60;99.90
2623;DHT22;1321;48.690;9.022;2023-04-24T06:56:45;14.70;99.90
2623;DHT22;1321;48.690;9.022;2023-04-24T06:59:14;14.60;99.90
2623;DHT22;1321;48.690;9.022;2023-04-24T07:01:43;14.40;99.90
2623;DHT22;1321;48.690;9.022;2023-04-24T07:04:11;14.40;99.90
2623;DHT22;1321;48.690;9.022;2023-04-24T07:06:40;14.20;99.90
2623;DHT22;1321;48.690;9.022;2023-04-24T07:09:08;14.00;99.90
2623;DHT22;1321;48.690;9.022;2023-04-24T07:11:38;13.90;99.90
2623;DHT22;1321;48.690;9.022;2023-04-24T07:14:07;13.80;99.90
2623;DHT22;1321;48.690;9.022;2023-04-24T07:16:35;13.70;99.90
2623;DHT22;1321;48.690;9.022;2023-04-24T07:19:04;13.60;99.90
2623;DHT22;1321;48.690;9.022;2023-04-24T07:21:32;13.50;99.90
2623;DHT22;1321;48.690;9.022;2023-04-24T07:24:00;13.50;99.90
2623;DHT22;1321;48.690;9.022;2023-04-24T07:26:29;13.50;99.90
2623;DHT22;1321;48.690;9.022;2023-04-24T07:28:59;13.60;99.90
2623;DHT22;1321;48.690;9.022;2023-04-24T07:31:27;13.70;99.90
2623;DHT22;1321;48.690;9.022;2023-04-24T07:33:56;13.90;99.90
2623;DHT22;1321;48.690;9.022;2023-04-24T07:36:27;14.00;99.90
2623;DHT22;1321;48.690;9.022;2023-04-24T07:38:55;14.20;99.90
2623;DHT22;1321;48.690;9.022;2023-04-24T07:41:24;14.40;99.90
2623;DHT22;1321;48.690;9.022;2023-04-24T07:43:52;14.40;99.90
2623;DHT22;1321;48.690;9.022;2023-04-24T07:46:22;14.50;99.90
2623;DHT22;1321;48.690;9.022;2023-04-24T07:48:51;14.50;99.90
2623;DHT22;1321;48.690;9.022;2023-04-24T07:51:39;14.60;99.90
2623;DHT22;1321;48.690;9.022;2023-04-24T07:54:07;14.60;99.90
2623;DHT22;1321;48.690;9.022;2023-04-24T07:56:35;14.60;99.90
2623;DHT22;1321;48.690;9.022;2023-04-24T07:59:06;14.60;99.90
2623;DHT22;1321;48.690;9.022;2023-04-24T08:01:35;14.60;99.90
2623;DHT22;1321;48.690;9.022;2023-04-24T08:04:04;14.60;99.90
2623;DHT22;1321;48.690;9.022;2023-04-24T08:06:33;14.70;99.90
2623;DHT22;1321;48.690;9.022;2023-04-24T08:09:01;14.50;99.90
2623;DHT22;1321;48.690;9.022;2023-04-24T08:11:30;14.50;99.90
2623;DHT22;1321;48.690;9.022;2023-04-24T08:13:58;14.40;99.90
2623;DHT22;1321;48.690;9.022;2023-04-24T08:16:27;14.40;99.90
2623;DHT22;1321;48.690;9.022;2023-04-24T08:18:57;14.40;99.90
2623;DHT22;1321;48.690;9.022;2023-04-24T08:21:25;14.40;99.90
2623;DHT22;1321;48.690;9.022;2023-04-24T08:23:54;14.50;99.90
2623;DHT22;1321;48.690;9.022;2023-04-24T08:26:22;14.60;99.90
2623;DHT22;1321;48.690;9.022;2023-04-24T08:28:51;14.70;99.90
2623;DHT22;1321;48.690;9.022;2023-04-24T08:31:19;14.80;99.90
2623;DHT22;1321;48.690;9.022;2023-04-24T08:33:49;14.90;99.90
2623;DHT22;1321;48.690;9.022;2023-04-24T08:36:19;15.00;99.90
2623;DHT22;1321;48.690;9.022;2023-04-24T08:38:52;15.10;99.90
2623;DHT22;1321;48.690;9.022;2023-04-24T08:41:20;15.00;99.90
2623;DHT22;1321;48.690;9.022;2023-04-24T08:43:51;14.90;99.90
2623;DHT22;1321;48.690;9.022;2023-04-24T08:46:20;14.80;99.90
2623;DHT22;1321;48.690;9.022;2023-04-24T08:48:49;14.50;99.90
2623;DHT22;1321;48.690;9.022;2023-04-24T08:51:19;14.30;99.90
2623;DHT22;1321;48.690;9.022;2023-04-24T08:53:48;14.30;99.90
2623;DHT22;1321;48.690;9.022;2023-04-24T08:56:17;14.20;99.90
2623;DHT22;1321;48.690;9.022;2023-04-24T08:58:46;14.10;99.90
2623;DHT22;1321;48.690;9.022;2023-04-24T09:01:14;14.20;99.90
2623;DHT22;1321;48.690;9.022;2023-04-24T09:03:43;14.30;99.90
2623;DHT22;1321;48.690;9.022;2023-04-24T09:06:11;14.40;99.90
2623;DHT22;1321;48.690;9.022;2023-04-24T09:08:42;14.50;99.90
2623;DHT22;1321;48.690;9.022;2023-04-24T09:11:11;14.40;99.90
2623;DHT22;1321;48.690;9.022;2023-04-24T09:13:40;14.30;99.90
2623;DHT22;1321;48.690;9.022;2023-04-24T09:16:09;14.20;99.90
2623;DHT22;1321;48.690;9.022;2023-04-24T09:18:37;14.20;99.90
2623;DHT22;1321;48.690;9.022;2023-04-24T09:21:08;14.30;99.90
2623;DHT22;1321;48.690;9.022;2023-04-24T09:23:36;14.40;99.90
2623;DHT22;1321;48.690;9.022;2023-04-24T09:26:09;14.60;99.90
2623;DHT22;1321;48.690;9.022;2023-04-24T09:28:39;14.60;99.90
2623;DHT22;1321;48.690;9.022;2023-04-24T09:31:11;14.70;99.90
2623;DHT22;1321;48.690;9.022;2023-04-24T09:33:43;14.70;99.90
2623;DHT22;1321;48.690;9.022;2023-04-24T09:36:27;14.80;99.90
2623;DHT22;1321;48.690;9.022;2023-04-24T09:38:58;15.00;99.90
2623;DHT22;1321;48.690;9.022;2023-04-24T09:41:28;15.00;99.90
2623;DHT22;1321;48.690;9.022;2023-04-24T09:43:57;14.90;99.90
2623;DHT22;1321;48.690;9.022;2023-04-24T09:46:30;14.80;99.90
2623;DHT22;1321;48.690;9.022;2023-04-24T09:49:08;14.90;99.90
2623;DHT22;1321;48.690;9.022;2023-04-24T09:51:38;14.80;99.90
2623;DHT22;1321;48.690;9.022;2023-04-24T09:54:14;14.60;99.90
2623;DHT22;1321;48.690;9.022;2023-04-24T09:56:46;14.50;99.90
2623;DHT22;1321;48.690;9.022;2023-04-24T09:59:17;14.50;99.90
2623;DHT22;1321;48.690;9.022;2023-04-24T10:01:45;14.50;99.90
2623;DHT22;1321;48.690;9.022;2023-04-24T10:04:16;14.50;99.90
2623;DHT22;1321;48.690;9.022;2023-04-24T10:06:46;14.70;99.90
2623;DHT22;1321;48.690;9.022;2023-04-24T10:09:16;14.80;99.90
2623;DHT22;1321;48.690;9.022;2023-04-24T10:11:47;14.90;99.90
2623;DHT22;1321;48.690;9.022;2023-04-24T10:14:17;14.80;99.90
2623;DHT22;1321;48.690;9.022;2023-04-24T10:16:46;14.90;99.90
2623;DHT22;1321;48.690;9.022;2023-04-24T10:19:15;15.10;99.90
2623;DHT22;1321;48.690;9.022;2023-04-24T10:21:45;15.20;99.90
2623;DHT22;1321;48.690;9.022;2023-04-24T10:24:15;15.20;99.90
2623;DHT22;1321;48.690;9.022;2023-04-24T10:26:46;15.10;99.90
2623;DHT22;1321;48.690;9.022;2023-04-24T10:29:17;15.20;99.90
2623;DHT22;1321;48.690;9.022;2023-04-24T10:31:46;15.10;99.90
2623;DHT22;1321;48.690;9.022;2023-04-24T10:34:15;15.10;99.90
2623;DHT22;1321;48.690;9.022;2023-04-24T10:36:48;15.30;99.90
2623;DHT22;1321;48.690;9.022;2023-04-24T10:39:20;15.40;99.90
2623;DHT22;1321;48.690;9.022;2023-04-24T10:41:55;15.30;99.90
2623;DHT22;1321;48.690;9.022;2023-04-24T10:44:24;15.30;99.90
2623;DHT22;1321;48.690;9.022;2023-04-24T10:46:55;15.40;99.90
2623;DHT22;1321;48.690;9.022;2023-04-24T10:49:28;15.40;99.90
2623;DHT22;1321;48.690;9.022;2023-04-24T10:52:01;15.40;99.90
2623;DHT22;1321;48.690;9.022;2023-04-24T10:54:35;15.20;99.90
2623;DHT22;1321;48.690;9.022;2023-04-24T10:57:27;14.90;99.90
2623;DHT22;1321;48.690;9.022;2023-04-24T11:00:18;14.70;99.90
2623;DHT22;1321;48.690;9.022;2023-04-24T11:02:47;14.90;99.90
2623;DHT22;1321;48.690;9.022;2023-04-24T11:05:21;14.90;99.90
2623;DHT22;1321;48.690;9.022;2023-04-24T11:08:11;14.90;99.90
2623;DHT22;1321;48.690;9.022;2023-04-24T11:10:40;15.00;99.90
2623;DHT22;1321;48.690;9.022;2023-04-24T11:13:10;15.00;99.90
2623;DHT22;1321;48.690;9.022;2023-04-24T11:15:41;15.00;99.90
2623;DHT22;1321;48.690;9.022;2023-04-24T11:18:13;14.70;99.90
2623;DHT22;1321;48.690;9.022;2023-04-24T11:20:43;14.60;99.90
2623;DHT22;1321;48.690;9.022;2023-04-24T11:23:12;14.60;99.90
2623;DHT22;1321;48.690;9.022;2023-04-24T11:25:41;14.60;99.90
2623;DHT22;1321;48.690;9.022;2023-04-24T11:28:15;14.60;99.90
2623;DHT22;1321;48.690;9.022;2023-04-24T11:30:44;14.60;99.90
2623;DHT22;1321;48.690;9.022;2023-04-24T11:33:19;14.40;99.90
2623;DHT22;1321;48.690;9.022;2023-04-24T11:35:48;14.30;99.90
2623;DHT22;1321;48.690;9.022;2023-04-24T11:38:17;14.30;99.90
2623;DHT22;1321;48.690;9.022;2023-04-24T11:40:51;14.30;99.90
2623;DHT22;1321;48.690;9.022;2023-04-24T11:43:21;14.30;99.90
2623;DHT22;1321;48.690;9.022;2023-04-24T11:45:50;14.30;99.90
2623;DHT22;1321;48.690;9.022;2023-04-24T11:48:19;14.20;99.90
2623;DHT22;1321;48.690;9.022;2023-04-24T11:50:50;14.30;99.90
2623;DHT22;1321;48.690;9.022;2023-04-24T11:53:19;14.40;99.90
2623;DHT22;1321;48.690;9.022;2023-04-24T11:55:48;14.50;99.90
2623;DHT22;1321;48.690;9.022;2023-04-24T11:58:21;14.60;99.90
2623;DHT22;1321;48.690;9.022;2023-04-24T12:00:56;14.60;99.90
2623;DHT22;1321;48.690;9.022;2023-04-24T12:03:25;14.50;99.90
2623;DHT22;1321;48.690;9.022;2023-04-24T12:06:04;14.40;99.90
2623;DHT22;1321;48.690;9.022;2023-04-24T12:08:33;14.30;99.90
2623;DHT22;1321;48.690;9.022;2023-04-24T12:11:05;14.10;99.90
2623;DHT22;1321;48.690;9.022;2023-04-24T12:13:36;14.10;99.90
2623;DHT22;1321;48.690;9.022;2023-04-24T12:16:04;14.00;99.90
2623;DHT22;1321;48.690;9.022;2023-04-24T12:18:33;14.10;99.90
2623;DHT22;1321;48.690;9.022;2023-04-24T12:21:15;14.10;99.90
2623;DHT22;1321;48.690;9.022;2023-04-24T12:23:46;14.20;99.90
2623;DHT22;1321;48.690;9.022;2023-04-24T12:26:18;14.20;99.90
2623;DHT22;1321;48.690;9.022;2023-04-24T12:28:50;14.40;99.90
2623;DHT22;1321;48.690;9.022;2023-04-24T12:31:21;14.40;99.90
2623;DHT22;1321;48.690;9.022;2023-04-24T12:33:49;14.30;99.90
2623;DHT22;1321;48.690;9.022;2023-04-24T12:36:17;14.30;99.90
2623;DHT22;1321;48.690;9.022;2023-04-24T12:38:45;14.30;99.90
2623;DHT22;1321;48.690;9.022;2023-04-24T12:41:14;14.30;99.90
2623;DHT22;1321;48.690;9.022;2023-04-24T12:43:53;14.10;99.90
2623;DHT22;1321;48.690;9.022;2023-04-24T12:46:22;14.00;99.90
2623;DHT22;1321;48.690;9.022;2023-04-24T12:48:50;14.00;99.90
2623;DHT22;1321;48.690;9.022;2023-04-24T12:51:18;14.00;99.90
2623;DHT22;1321;48.690;9.022;2023-04-24T12:53:46;14.00;99.90
2623;DHT22;1321;48.690;9.022;2023-04-24T12:56:15;14.00;99.90
2623;DHT22;1321;48.690;9.022;2023-04-24T12:58:43;14.00;99.90
2623;DHT22;1321;48.690;9.022;2023-04-24T13:01:13;14.00;99.90
2623;DHT22;1321;48.690;9.022;2023-04-24T13:03:41;14.00;99.90
2623;DHT22;1321;48.690;9.022;2023-04-24T13:06:10;13.90;99.90
2623;DHT22;1321;48.690;9.022;2023-04-24T13:08:39;13.90;99.90
2623;DHT22;1321;48.690;9.022;2023-04-24T13:11:07;13.90;99.90
2623;DHT22;1321;48.690;9.022;2023-04-24T13:13:35;13.80;99.90
2623;DHT22;1321;48.690;9.022;2023-04-24T13:16:03;13.80;99.90
2623;DHT22;1321;48.690;9.022;2023-04-24T13:18:33;13.70;99.90
2623;DHT22;1321;48.690;9.022;2023-04-24T13:21:01;13.80;99.90
2623;DHT22;1321;48.690;9.022;2023-04-24T13:23:29;13.90;99.90
2623;DHT22;1321;48.690;9.022;2023-04-24T13:25:58;13.80;99.90
2623;DHT22;1321;48.690;9.022;2023-04-24T13:28:26;13.70;99.90
2623;DHT22;1321;48.690;9.022;2023-04-24T13:30:54;13.60;99.90
2623;DHT22;1321;48.690;9.022;2023-04-24T13:33:22;13.50;99.90
2623;DHT22;1321;48.690;9.022;2023-04-24T13:35:52;13.50;99.90
2623;DHT22;1321;48.690;9.022;2023-04-24T13:38:21;13.30;99.90
2623;DHT22;1321;48.690;9.022;2023-04-24T13:40:50;13.30;99.90
2623;DHT22;1321;48.690;9.022;2023-04-24T13:43:18;13.40;99.90
2623;DHT22;1321;48.690;9.022;2023-04-24T13:45:46;13.30;99.90
2623;DHT22;1321;48.690;9.022;2023-04-24T13:48:15;13.40;99.90
2623;DHT22;1321;48.690;9.022;2023-04-24T13:50:43;13.40;99.90
2623;DHT22;1321;48.690;9.022;2023-04-24T13:53:16;13.50;99.90
2623;DHT22;1321;48.690;9.022;2023-04-24T13:55:44;13.60;99.90
2623;DHT22;1321;48.690;9.022;2023-04-24T13:58:12;13.60;99.90
2623;DHT22;1321;48.690;9.022;2023-04-24T14:00:41;13.50;99.90
2623;DHT22;1321;48.690;9.022;2023-04-24T14:03:10;13.50;99.90
2623;DHT22;1321;48.690;9.022;2023-04-24T14:05:38;13.50;99.90
2623;DHT22;1321;48.690;9.022;2023-04-24T14:08:07;13.50;99.90
2623;DHT22;1321;48.690;9.022;2023-04-24T14:10:36;13.50;99.90
2623;DHT22;1321;48.690;9.022;2023-04-24T14:13:05;13.60;99.90
2623;DHT22;1321;48.690;9.022;2023-04-24T14:15:35;13.50;99.90
2623;DHT22;1321;48.690;9.022;2023-04-24T14:18:04;13.40;99.90
2623;DHT22;1321;48.690;9.022;2023-04-24T14:20:32;13.40;99.90
2623;DHT22;1321;48.690;9.022;2023-04-24T14:23:00;13.30;99.90
2623;DHT22;1321;48.690;9.022;2023-04-24T14:25:28;13.30;99.90
2623;DHT22;1321;48.690;9.022;2023-04-24T14:27:58;13.40;99.90
2623;DHT22;1321;48.690;9.022;2023-04-24T14:30:26;13.40;99.90
2623;DHT22;1321;48.690;9.022;2023-04-24T14:32:55;13.50;99.90
2623;DHT22;1321;48.690;9.022;2023-04-24T14:35:23;13.50;99.90
2623;DHT22;1321;48.690;9.022;2023-04-24T14:37:51;13.60;99.90
2623;DHT22;1321;48.690;9.022;2023-04-24T14:40:19;13.60;99.90
2623;DHT22;1321;48.690;9.022;2023-04-24T14:43:09;13.60;99.90
2623;DHT22;1321;48.690;9.022;2023-04-24T14:45:37;13.60;99.90
2623;DHT22;1321;48.690;9.022;2023-04-24T14:48:07;13.70;99.90
2623;DHT22;1321;48.690;9.022;2023-04-24T14:50:36;13.70;99.90
2623;DHT22;1321;48.690;9.022;2023-04-24T14:53:04;13.70;99.90
2623;DHT22;1321;48.690;9.022;2023-04-24T14:55:32;13.70;99.90
2623;DHT22;1321;48.690;9.022;2023-04-24T14:58:03;13.60;99.90
2623;DHT22;1321;48.690;9.022;2023-04-24T15:00:33;13.50;99.90
2623;DHT22;1321;48.690;9.022;2023-04-24T15:03:01;13.60;99.90
2623;DHT22;1321;48.690;9.022;2023-04-24T15:05:29;13.60;99.90
2623;DHT22;1321;48.690;9.022;2023-04-24T15:07:58;13.60;99.90
2623;DHT22;1321;48.690;9.022;2023-04-24T15:10:26;13.50;99.90
2623;DHT22;1321;48.690;9.022;2023-04-24T15:12:56;13.50;99.90
2623;DHT22;1321;48.690;9.022;2023-04-24T15:15:24;13.50;99.90
2623;DHT22;1321;48.690;9.022;2023-04-24T15:17:54;13.50;99.90
2623;DHT22;1321;48.690;9.022;2023-04-24T15:20:23;13.50;99.90
2623;DHT22;1321;48.690;9.022;2023-04-24T15:22:51;13.50;99.90
2623;DHT22;1321;48.690;9.022;2023-04-24T15:25:20;13.50;99.90
2623;DHT22;1321;48.690;9.022;2023-04-24T15:27:48;13.50;99.90
2623;DHT22;1321;48.690;9.022;2023-04-24T15:30:17;13.40;99.90
2623;DHT22;1321;48.690;9.022;2023-04-24T15:32:45;13.40;99.90
2623;DHT22;1321;48.690;9.022;2023-04-24T15:35:16;13.40;99.90
2623;DHT22;1321;48.690;9.022;2023-04-24T15:37:44;13.40;99.90
2623;DHT22;1321;48.690;9.022;2023-04-24T15:40:13;13.40;99.90
2623;DHT22;1321;48.690;9.022;2023-04-24T15:42:43;13.40;99.90
2623;DHT22;1321;48.690;9.022;2023-04-24T15:45:11;13.50;99.90
2623;DHT22;1321;48.690;9.022;2023-04-24T15:47:40;13.50;99.90
2623;DHT22;1321;48.690;9.022;2023-04-24T15:50:08;13.50;99.90
2623;DHT22;1321;48.690;9.022;2023-04-24T15:52:42;13.50;99.90
2623;DHT22;1321;48.690;9.022;2023-04-24T15:55:10;13.50;99.90
2623;DHT22;1321;48.690;9.022;2023-04-24T15:57:38;13.50;99.90
2623;DHT22;1321;48.690;9.022;2023-04-24T16:00:08;13.60;99.90
2623;DHT22;1321;48.690;9.022;2023-04-24T16:02:36;13.80;99.90
2623;DHT22;1321;48.690;9.022;2023-04-24T16:05:06;13.90;99.90
2623;DHT22;1321;48.690;9.022;2023-04-24T16:07:37;13.90;99.90
2623;DHT22;1321;48.690;9.022;2023-04-24T16:10:07;13.90;99.90
2623;DHT22;1321;48.690;9.022;2023-04-24T16:12:36;13.90;99.90
2623;DHT22;1321;48.690;9.022;2023-04-24T16:15:05;13.90;99.90
2623;DHT22;1321;48.690;9.022;2023-04-24T16:17:33;13.80;99.90